Time;durP1;ratioP1;P1;durP2;ratioP2;P2;SDS_P1;SDS_P2;PMS_P1;PMS_P2;Temp;Humidity;BMP_temperature;BMP_pressure;BME280_temperature;BME280_humidity;BME280_pressure;Samples;Min_cycle;Max_cycle;Signal;HPM_P1;HPM_P2
2023/03/15 00:01:53;;;;;;;;;;;3.30;99.90;;;;;;5007016;28;21494;-60
2023/03/15 00:04:20;;;;;;;;;;;3.30;99.90;;;;;;5003016;28;19914;-57
2023/03/15 00:06:45;;;;;;;;;;;3.30;99.90;;;;;;5007586;28;19917;-61
2023/03/15 00:09:11;;;;;;;;;;;3.30;99.90;;;;;;5010254;28;20394;-61
2023/03/15 00:11:36;;;;;;;;;;;3.30;99.90;;;;;;5007221;28;20338;-58
2023/03/15 00:14:02;;;;;;;;;;;3.30;99.90;;;;;;5005584;28;19917;-59
2023/03/15 00:16:27;;;;;;;;;;;3.20;99.90;;;;;;5006252;28;19922;-59
2023/03/15 00:18:53;;;;;;;;;;;3.20;99.90;;;;;;5009032;28;20067;-59
2023/03/15 00:21:19;;;;;;;;;;;3.20;99.90;;;;;;5008013;28;19917;-61
2023/03/15 00:23:44;;;;;;;;;;;3.30;99.90;;;;;;5005205;28;19936;-63
2023/03/15 00:26:10;;;;;;;;;;;3.30;99.90;;;;;;5007869;28;19917;-61
2023/03/15 00:28:35;;;;;;;;;;;3.30;99.90;;;;;;5007726;28;19913;-62
2023/03/15 00:31:05;;;;;;;;;;;3.40;99.90;;;;;;5009530;28;19918;-61
2023/03/15 00:33:33;;;;;;;;;;;3.30;99.90;;;;;;5009437;28;20004;-63
2023/03/15 00:36:01;;;;;;;;;;;3.30;99.90;;;;;;5004242;28;19913;-61
2023/03/15 00:38:26;;;;;;;;;;;3.40;99.90;;;;;;5008497;28;20040;-62
2023/03/15 00:40:52;;;;;;;;;;;3.40;99.90;;;;;;5006696;28;19944;-63
2023/03/15 00:43:17;;;;;;;;;;;3.40;99.90;;;;;;5006198;28;19918;-58
2023/03/15 00:45:44;;;;;;;;;;;3.40;99.90;;;;;;5002365;28;19921;-62
2023/03/15 00:48:09;;;;;;;;;;;3.40;99.90;;;;;;5007271;28;19917;-62
2023/03/15 00:50:35;;;;;;;;;;;3.40;99.90;;;;;;5007390;28;20021;-63
2023/03/15 00:53:00;;;;;;;;;;;3.40;99.90;;;;;;5007126;28;19933;-63
2023/03/15 00:55:26;;;;;;;;;;;3.50;99.90;;;;;;5008837;28;19922;-63
2023/03/15 00:57:51;;;;;;;;;;;3.50;99.90;;;;;;5006028;28;19999;-61
2023/03/15 01:00:23;;;;;;;;;;;3.50;99.90;;;;;;5007461;28;19913;-61
2023/03/15 01:02:52;;;;;;;;;;;3.40;99.90;;;;;;5007964;28;19937;-62
2023/03/15 01:05:18;;;;;;;;;;;3.40;99.90;;;;;;5007057;28;19914;-63
2023/03/15 01:07:46;;;;;;;;;;;3.50;99.90;;;;;;5006717;28;19917;-61
2023/03/15 01:10:12;;;;;;;;;;;3.50;99.90;;;;;;5005449;28;19925;-61
2023/03/15 01:12:37;;;;;;;;;;;3.60;99.90;;;;;;5003535;28;19914;-61
2023/03/15 01:15:04;;;;;;;;;;;3.60;99.90;;;;;;5004242;28;19917;-62
2023/03/15 01:17:30;;;;;;;;;;;3.70;99.90;;;;;;5006778;28;20004;-61
2023/03/15 01:19:55;;;;;;;;;;;3.80;99.90;;;;;;5005846;28;20061;-60
2023/03/15 01:22:20;;;;;;;;;;;3.80;99.90;;;;;;5003569;28;19961;-61
2023/03/15 01:24:46;;;;;;;;;;;3.80;99.90;;;;;;5002492;28;19926;-60
2023/03/15 01:27:12;;;;;;;;;;;3.90;99.90;;;;;;5008974;28;19925;-61
2023/03/15 01:29:37;;;;;;;;;;;3.90;99.90;;;;;;5006366;28;19928;-61
2023/03/15 01:32:03;;;;;;;;;;;3.80;99.90;;;;;;4987457;28;20026;-62
2023/03/15 01:34:29;;;;;;;;;;;3.80;99.90;;;;;;5002324;28;19932;-62
2023/03/15 01:36:54;;;;;;;;;;;3.80;99.90;;;;;;5008574;28;19914;-62
2023/03/15 01:39:20;;;;;;;;;;;3.80;99.90;;;;;;5006840;28;20494;-62
2023/03/15 01:41:46;;;;;;;;;;;3.70;99.90;;;;;;5007905;28;20519;-61
2023/03/15 01:44:15;;;;;;;;;;;3.60;99.90;;;;;;5005305;28;19956;-60
2023/03/15 01:46:40;;;;;;;;;;;3.50;99.90;;;;;;5008701;28;19921;-60
2023/03/15 01:49:08;;;;;;;;;;;3.50;99.90;;;;;;5004068;28;20290;-61
2023/03/15 01:51:36;;;;;;;;;;;3.40;99.90;;;;;;5006548;28;19918;-61
2023/03/15 01:54:07;;;;;;;;;;;3.40;99.90;;;;;;5009264;28;19917;-61
2023/03/15 01:56:34;;;;;;;;;;;3.30;99.90;;;;;;5008796;28;19953;-63
2023/03/15 01:59:00;;;;;;;;;;;3.30;99.90;;;;;;5003664;28;19980;-60
2023/03/15 02:01:26;;;;;;;;;;;3.40;99.90;;;;;;5010354;28;19921;-62
2023/03/15 02:03:58;;;;;;;;;;;3.40;99.90;;;;;;5009198;28;19918;-62
2023/03/15 02:06:24;;;;;;;;;;;3.40;99.90;;;;;;5007475;28;20306;-63
2023/03/15 02:08:55;;;;;;;;;;;3.40;99.90;;;;;;5003096;28;19913;-61
2023/03/15 02:11:23;;;;;;;;;;;3.30;99.90;;;;;;5010193;28;19913;-60
2023/03/15 02:13:48;;;;;;;;;;;3.30;99.90;;;;;;5006709;28;19922;-63
2023/03/15 02:16:14;;;;;;;;;;;3.30;99.90;;;;;;5008039;28;19927;-58
2023/03/15 02:18:40;;;;;;;;;;;3.20;99.90;;;;;;5006416;28;20012;-61
2023/03/15 02:21:12;;;;;;;;;;;3.20;99.90;;;;;;5008154;28;20003;-61
2023/03/15 02:23:37;;;;;;;;;;;3.10;99.90;;;;;;5005990;28;20391;-62
2023/03/15 02:26:15;;;;;;;;;;;3.00;99.90;;;;;;4989904;28;19968;-64
2023/03/15 02:28:41;;;;;;;;;;;2.90;99.90;;;;;;5006074;28;19918;-63
2023/03/15 02:31:07;;;;;;;;;;;2.80;99.90;;;;;;5014598;28;20376;-63
2023/03/15 02:33:40;;;;;;;;;;;2.70;99.90;;;;;;5009629;28;19913;-61
2023/03/15 02:36:08;;;;;;;;;;;2.30;99.90;;;;;;4999857;28;21103;-58
2023/03/15 02:38:34;;;;;;;;;;;2.20;99.90;;;;;;5005604;28;19914;-63
2023/03/15 02:40:59;;;;;;;;;;;2.10;99.90;;;;;;5009520;28;20380;-64
2023/03/15 02:43:27;;;;;;;;;;;2.10;99.90;;;;;;5007331;28;20298;-64
2023/03/15 02:45:52;;;;;;;;;;;2.00;99.90;;;;;;5002597;28;19924;-61
2023/03/15 02:48:18;;;;;;;;;;;2.00;99.90;;;;;;5005883;28;19921;-63
2023/03/15 02:50:44;;;;;;;;;;;1.90;99.90;;;;;;5006085;28;19914;-62
2023/03/15 02:53:11;;;;;;;;;;;1.90;99.90;;;;;;5006607;28;21816;-63
2023/03/15 02:55:36;;;;;;;;;;;1.90;99.90;;;;;;5009218;28;19913;-63
2023/03/15 02:58:02;;;;;;;;;;;1.90;99.90;;;;;;5008761;28;19924;-64
2023/03/15 03:00:27;;;;;;;;;;;1.80;99.90;;;;;;5002119;28;19953;-64
2023/03/15 03:02:53;;;;;;;;;;;1.80;99.90;;;;;;5005606;28;19921;-64
2023/03/15 03:05:18;;;;;;;;;;;1.80;99.90;;;;;;5008531;28;19959;-63
2023/03/15 03:07:44;;;;;;;;;;;1.70;99.90;;;;;;5009733;28;20470;-63
2023/03/15 03:10:11;;;;;;;;;;;1.70;99.90;;;;;;5008005;28;20019;-63
2023/03/15 03:12:36;;;;;;;;;;;1.70;99.90;;;;;;5006825;28;20008;-62
2023/03/15 03:15:03;;;;;;;;;;;1.70;99.90;;;;;;5005576;28;20000;-63
2023/03/15 03:17:29;;;;;;;;;;;1.60;99.90;;;;;;5007669;28;20301;-63
2023/03/15 03:19:55;;;;;;;;;;;1.60;99.90;;;;;;5006410;28;19913;-64
2023/03/15 03:22:24;;;;;;;;;;;1.60;99.90;;;;;;5011846;28;19925;-63
2023/03/15 03:24:50;;;;;;;;;;;1.70;99.90;;;;;;5009257;28;20004;-63
2023/03/15 03:27:16;;;;;;;;;;;1.80;99.90;;;;;;5005763;28;20040;-63
2023/03/15 03:29:41;;;;;;;;;;;1.80;99.90;;;;;;5003945;28;20001;-63
2023/03/15 03:32:07;;;;;;;;;;;1.80;99.90;;;;;;5008733;28;19913;-64
2023/03/15 03:34:33;;;;;;;;;;;1.70;99.90;;;;;;5004360;28;19914;-64
2023/03/15 03:36:58;;;;;;;;;;;1.90;99.90;;;;;;5008759;28;19913;-63
2023/03/15 03:39:24;;;;;;;;;;;2.00;99.90;;;;;;5010384;28;20543;-65
2023/03/15 03:41:49;;;;;;;;;;;2.00;99.90;;;;;;5008265;28;19924;-63
2023/03/15 03:44:15;;;;;;;;;;;2.10;99.90;;;;;;5003802;28;19933;-64
2023/03/15 03:46:41;;;;;;;;;;;2.10;99.90;;;;;;5002425;28;19924;-62
2023/03/15 03:49:06;;;;;;;;;;;2.10;99.90;;;;;;5001590;28;19967;-60
2023/03/15 03:51:33;;;;;;;;;;;2.10;99.90;;;;;;5006868;28;19924;-62
2023/03/15 03:53:59;;;;;;;;;;;2.20;99.90;;;;;;5009890;28;19914;-64
2023/03/15 03:56:25;;;;;;;;;;;2.20;99.90;;;;;;5003126;28;19921;-63
2023/03/15 03:58:50;;;;;;;;;;;2.20;99.90;;;;;;5005782;28;21682;-61
2023/03/15 04:01:16;;;;;;;;;;;2.20;99.90;;;;;;5008058;28;19922;-61
2023/03/15 04:03:41;;;;;;;;;;;2.10;99.90;;;;;;5007091;28;19917;-63
2023/03/15 04:06:07;;;;;;;;;;;2.20;99.90;;;;;;5007772;28;19976;-62
2023/03/15 04:08:32;;;;;;;;;;;2.20;99.90;;;;;;5007137;28;19936;-64
2023/03/15 04:10:58;;;;;;;;;;;2.20;99.90;;;;;;5008119;28;19996;-61
2023/03/15 04:13:24;;;;;;;;;;;2.20;99.90;;;;;;5013894;28;19924;-63
2023/03/15 04:15:49;;;;;;;;;;;2.20;99.90;;;;;;5006176;28;19914;-62
2023/03/15 04:18:15;;;;;;;;;;;2.10;99.90;;;;;;5010240;28;19968;-63
2023/03/15 04:20:45;;;;;;;;;;;2.10;99.90;;;;;;5002679;28;19914;-64
2023/03/15 04:23:15;;;;;;;;;;;2.10;99.90;;;;;;5009228;28;19913;-63
2023/03/15 04:25:40;;;;;;;;;;;2.10;99.90;;;;;;5011648;28;19925;-63
2023/03/15 04:28:09;;;;;;;;;;;2.20;99.90;;;;;;5008609;28;19917;-63
2023/03/15 04:30:35;;;;;;;;;;;2.20;99.90;;;;;;5008391;28;20016;-62
2023/03/15 04:33:02;;;;;;;;;;;2.30;99.90;;;;;;5004916;28;19940;-62
2023/03/15 04:35:29;;;;;;;;;;;2.40;99.90;;;;;;5004346;28;20055;-63
2023/03/15 04:37:55;;;;;;;;;;;2.40;99.90;;;;;;5004847;28;20450;-62
2023/03/15 04:40:23;;;;;;;;;;;2.40;99.90;;;;;;4999731;28;19936;-63
2023/03/15 04:42:49;;;;;;;;;;;2.40;99.90;;;;;;5007093;28;19921;-63
2023/03/15 04:45:14;;;;;;;;;;;2.50;99.90;;;;;;5003340;28;20272;-63
2023/03/15 04:47:40;;;;;;;;;;;2.50;99.90;;;;;;5008253;28;19922;-63
2023/03/15 04:50:06;;;;;;;;;;;2.40;99.90;;;;;;5003728;28;20004;-65
2023/03/15 04:52:31;;;;;;;;;;;2.30;99.90;;;;;;5007223;28;20402;-62
2023/03/15 04:54:56;;;;;;;;;;;2.10;99.90;;;;;;5000307;28;19917;-63
2023/03/15 04:57:22;;;;;;;;;;;2.10;99.90;;;;;;5002061;28;19936;-63
2023/03/15 04:59:47;;;;;;;;;;;2.20;99.90;;;;;;5003363;28;19920;-64
2023/03/15 05:02:13;;;;;;;;;;;2.20;99.90;;;;;;5007054;28;19921;-64
2023/03/15 05:04:38;;;;;;;;;;;2.10;99.90;;;;;;5013654;28;19913;-61
2023/03/15 05:07:04;;;;;;;;;;;2.20;99.90;;;;;;5006735;28;19971;-65
2023/03/15 05:09:36;;;;;;;;;;;2.20;99.90;;;;;;5004152;28;19960;-62
2023/03/15 05:12:05;;;;;;;;;;;2.20;99.90;;;;;;5008501;28;20004;-60
2023/03/15 05:14:31;;;;;;;;;;;2.20;99.90;;;;;;5005211;28;20470;-64
2023/03/15 05:16:58;;;;;;;;;;;2.20;99.90;;;;;;5007192;28;20007;-63
2023/03/15 05:19:27;;;;;;;;;;;2.20;99.90;;;;;;5006181;28;19944;-62
2023/03/15 05:21:53;;;;;;;;;;;2.20;99.90;;;;;;5014040;28;19913;-63
2023/03/15 05:24:19;;;;;;;;;;;2.20;99.90;;;;;;5011591;28;19972;-63
2023/03/15 05:26:45;;;;;;;;;;;2.20;99.90;;;;;;5009024;28;20335;-64
2023/03/15 05:29:14;;;;;;;;;;;2.30;99.90;;;;;;5008332;28;19975;-64
2023/03/15 05:31:39;;;;;;;;;;;2.30;99.90;;;;;;5008389;28;19921;-63
2023/03/15 05:34:05;;;;;;;;;;;2.30;99.90;;;;;;5010247;28;20338;-63
2023/03/15 05:36:31;;;;;;;;;;;2.40;99.90;;;;;;5011224;28;19959;-63
2023/03/15 05:38:56;;;;;;;;;;;2.30;99.90;;;;;;5008611;28;19913;-61
2023/03/15 05:41:22;;;;;;;;;;;2.30;99.90;;;;;;5011875;28;19917;-63
2023/03/15 05:43:48;;;;;;;;;;;2.40;99.90;;;;;;5010148;28;19953;-61
2023/03/15 05:46:14;;;;;;;;;;;2.30;99.90;;;;;;5007540;28;19913;-60
2023/03/15 05:48:39;;;;;;;;;;;2.40;99.90;;;;;;5008156;28;19920;-65
2023/03/15 05:51:05;;;;;;;;;;;2.40;99.90;;;;;;5007188;28;19913;-63
2023/03/15 05:53:30;;;;;;;;;;;2.50;99.90;;;;;;5009038;28;19918;-59
2023/03/15 05:55:56;;;;;;;;;;;2.50;99.90;;;;;;5008861;28;19917;-62
2023/03/15 05:58:21;;;;;;;;;;;2.50;99.90;;;;;;5009634;28;19917;-59
2023/03/15 06:00:48;;;;;;;;;;;2.60;99.90;;;;;;5003823;28;19965;-62
2023/03/15 06:03:13;;;;;;;;;;;2.60;99.90;;;;;;5007692;28;19959;-60
2023/03/15 06:05:39;;;;;;;;;;;2.60;99.90;;;;;;5010394;28;19917;-63
2023/03/15 06:08:04;;;;;;;;;;;2.60;99.90;;;;;;5010075;28;19924;-64
2023/03/15 06:10:30;;;;;;;;;;;2.70;99.90;;;;;;5009627;28;19928;-63
2023/03/15 06:12:55;;;;;;;;;;;2.70;99.90;;;;;;5005575;28;19975;-64
2023/03/15 06:15:21;;;;;;;;;;;2.70;99.90;;;;;;5006118;28;19913;-64
2023/03/15 06:17:46;;;;;;;;;;;2.70;99.90;;;;;;5011959;28;19917;-64
2023/03/15 06:20:12;;;;;;;;;;;2.80;99.90;;;;;;5007333;28;19921;-63
2023/03/15 06:22:37;;;;;;;;;;;2.80;99.90;;;;;;5008858;28;19913;-64
2023/03/15 06:25:03;;;;;;;;;;;2.70;99.90;;;;;;5011069;28;20339;-64
2023/03/15 06:27:28;;;;;;;;;;;2.80;99.90;;;;;;5011935;28;19917;-63
2023/03/15 06:29:54;;;;;;;;;;;2.80;99.90;;;;;;5011235;28;19918;-65
2023/03/15 06:32:20;;;;;;;;;;;2.80;99.90;;;;;;5021058;28;20404;-64
2023/03/15 06:34:45;;;;;;;;;;;2.80;99.90;;;;;;5025913;28;19917;-63
2023/03/15 06:37:12;;;;;;;;;;;2.90;99.90;;;;;;5012163;28;19913;-63
2023/03/15 06:39:38;;;;;;;;;;;2.90;99.90;;;;;;5011066;28;20383;-61
2023/03/15 06:42:05;;;;;;;;;;;2.90;99.90;;;;;;5010420;28;19939;-62
2023/03/15 06:44:30;;;;;;;;;;;2.80;99.90;;;;;;5009940;28;20020;-64
2023/03/15 06:46:56;;;;;;;;;;;2.80;99.90;;;;;;5009340;28;20503;-62
2023/03/15 06:49:21;;;;;;;;;;;2.90;99.90;;;;;;5009853;28;19921;-63
2023/03/15 06:51:47;;;;;;;;;;;2.90;99.90;;;;;;5009328;28;20426;-66
2023/03/15 06:54:12;;;;;;;;;;;2.80;99.90;;;;;;5010788;28;19921;-60
2023/03/15 06:56:38;;;;;;;;;;;2.90;99.90;;;;;;5011713;28;19960;-61
2023/03/15 06:59:04;;;;;;;;;;;3.00;99.90;;;;;;5008854;28;19959;-64
2023/03/15 07:01:29;;;;;;;;;;;2.90;99.90;;;;;;5011590;28;20418;-62
2023/03/15 07:03:55;;;;;;;;;;;2.90;99.90;;;;;;5010313;28;20322;-63
2023/03/15 07:06:20;;;;;;;;;;;3.00;99.90;;;;;;5010183;28;19913;-64
2023/03/15 07:08:46;;;;;;;;;;;3.00;99.90;;;;;;5011337;28;19913;-64
2023/03/15 07:11:11;;;;;;;;;;;2.90;99.90;;;;;;5007880;28;20015;-64
2023/03/15 07:13:37;;;;;;;;;;;2.90;99.90;;;;;;5008487;28;19924;-62
2023/03/15 07:16:02;;;;;;;;;;;3.00;99.90;;;;;;5012542;28;19917;-62
2023/03/15 07:18:28;;;;;;;;;;;3.00;99.90;;;;;;5008785;28;19913;-59
2023/03/15 07:20:57;;;;;;;;;;;3.00;99.90;;;;;;5002461;28;19920;-61
2023/03/15 07:23:23;;;;;;;;;;;3.00;99.90;;;;;;5010066;28;20376;-63
2023/03/15 07:25:48;;;;;;;;;;;3.10;99.90;;;;;;5006892;28;19924;-62
2023/03/15 07:28:14;;;;;;;;;;;3.20;99.90;;;;;;5011792;28;19917;-54
2023/03/15 07:30:39;;;;;;;;;;;3.10;99.90;;;;;;5011233;28;19936;-57
2023/03/15 07:33:04;;;;;;;;;;;3.10;99.90;;;;;;5012568;28;19989;-56
2023/03/15 07:35:30;;;;;;;;;;;3.20;99.90;;;;;;5010906;28;19920;-56
2023/03/15 07:37:55;;;;;;;;;;;3.20;99.90;;;;;;5011133;28;19963;-58
2023/03/15 07:40:21;;;;;;;;;;;3.20;99.90;;;;;;5008457;28;19910;-53
2023/03/15 07:42:46;;;;;;;;;;;3.20;99.90;;;;;;5009395;28;19972;-58
2023/03/15 07:45:12;;;;;;;;;;;3.30;99.90;;;;;;5004940;28;20395;-56
2023/03/15 07:47:37;;;;;;;;;;;3.30;99.90;;;;;;5005512;28;20292;-59
2023/03/15 07:50:03;;;;;;;;;;;3.30;99.90;;;;;;5009118;28;19913;-58
2023/03/15 07:52:29;;;;;;;;;;;3.30;99.90;;;;;;5008321;28;20000;-58
2023/03/15 07:54:54;;;;;;;;;;;3.40;99.90;;;;;;5010958;28;20365;-59
2023/03/15 07:57:20;;;;;;;;;;;3.40;99.90;;;;;;5006796;28;19976;-56
2023/03/15 07:59:45;;;;;;;;;;;3.40;99.90;;;;;;5008525;28;19945;-55
2023/03/15 08:02:12;;;;;;;;;;;3.40;99.90;;;;;;5010340;28;19913;-59
2023/03/15 08:04:37;;;;;;;;;;;3.40;99.90;;;;;;5010961;28;20276;-59
2023/03/15 08:07:03;;;;;;;;;;;3.40;99.90;;;;;;5011320;28;19960;-60
2023/03/15 08:09:31;;;;;;;;;;;3.40;99.90;;;;;;5011492;28;20012;-58
2023/03/15 08:11:57;;;;;;;;;;;3.40;99.90;;;;;;5009743;28;19920;-58
2023/03/15 08:14:23;;;;;;;;;;;3.40;99.90;;;;;;5009288;28;19929;-58
2023/03/15 08:16:49;;;;;;;;;;;3.40;99.90;;;;;;5007940;28;20294;-58
2023/03/15 08:19:14;;;;;;;;;;;3.40;99.90;;;;;;5005633;28;19929;-53
2023/03/15 08:21:44;;;;;;;;;;;3.30;99.90;;;;;;5007541;28;19914;-58
2023/03/15 08:24:12;;;;;;;;;;;3.30;99.90;;;;;;5007110;28;19967;-59
2023/03/15 08:26:37;;;;;;;;;;;3.30;99.90;;;;;;5010147;28;19914;-57
2023/03/15 08:29:03;;;;;;;;;;;3.40;99.90;;;;;;5008520;28;20024;-58
2023/03/15 08:31:29;;;;;;;;;;;3.40;99.90;;;;;;5004875;28;19968;-58
2023/03/15 08:33:55;;;;;;;;;;;3.30;99.90;;;;;;5008839;28;20371;-56
2023/03/15 08:36:20;;;;;;;;;;;3.30;99.90;;;;;;5007450;28;19910;-57
2023/03/15 08:38:46;;;;;;;;;;;3.30;99.90;;;;;;5008530;28;20274;-56
2023/03/15 08:41:12;;;;;;;;;;;3.30;99.90;;;;;;5006267;28;19932;-58
2023/03/15 08:43:37;;;;;;;;;;;3.30;99.90;;;;;;5011140;28;19925;-57
2023/03/15 08:46:03;;;;;;;;;;;3.40;99.90;;;;;;5003703;28;20294;-58
2023/03/15 08:48:28;;;;;;;;;;;3.40;99.90;;;;;;5006614;28;19945;-54
2023/03/15 08:50:55;;;;;;;;;;;3.40;99.90;;;;;;5008346;28;19920;-55
2023/03/15 08:53:21;;;;;;;;;;;3.40;99.90;;;;;;5010489;28;20393;-57
2023/03/15 08:55:46;;;;;;;;;;;3.40;99.90;;;;;;5012197;28;19999;-55
2023/03/15 08:58:13;;;;;;;;;;;3.40;99.90;;;;;;5013377;28;20441;-56
2023/03/15 09:00:38;;;;;;;;;;;3.50;99.90;;;;;;4992017;28;19918;-58
2023/03/15 09:03:04;;;;;;;;;;;3.60;99.90;;;;;;5015046;28;20626;-56
2023/03/15 09:05:29;;;;;;;;;;;3.60;99.90;;;;;;5012269;28;19920;-58
2023/03/15 09:07:55;;;;;;;;;;;3.70;99.90;;;;;;5011648;28;19966;-59
2023/03/15 09:10:21;;;;;;;;;;;3.80;99.90;;;;;;5013053;28;20399;-57
2023/03/15 09:12:51;;;;;;;;;;;3.80;99.90;;;;;;5026696;28;19909;-53
2023/03/15 09:15:16;;;;;;;;;;;3.70;99.90;;;;;;5010914;28;19917;-53
2023/03/15 09:17:42;;;;;;;;;;;3.70;99.90;;;;;;5014805;28;19924;-57
2023/03/15 09:20:11;;;;;;;;;;;3.80;99.90;;;;;;5009131;28;19922;-55
2023/03/15 09:22:36;;;;;;;;;;;3.80;99.90;;;;;;5012675;28;19917;-54
2023/03/15 09:25:03;;;;;;;;;;;3.80;99.90;;;;;;5014379;28;19956;-54
2023/03/15 09:27:29;;;;;;;;;;;3.90;99.90;;;;;;5013378;28;19921;-56
2023/03/15 09:29:55;;;;;;;;;;;4.00;99.90;;;;;;5015122;28;19913;-58
2023/03/15 09:32:20;;;;;;;;;;;4.10;99.90;;;;;;5012902;28;19909;-56
2023/03/15 09:34:46;;;;;;;;;;;4.10;99.90;;;;;;5013960;28;19914;-56
2023/03/15 09:37:11;;;;;;;;;;;4.20;99.90;;;;;;5013837;28;19916;-54
2023/03/15 09:39:37;;;;;;;;;;;4.20;99.90;;;;;;5013002;28;19913;-56
2023/03/15 09:42:05;;;;;;;;;;;4.20;99.90;;;;;;5009195;28;20304;-55
2023/03/15 09:44:39;;;;;;;;;;;4.50;99.90;;;;;;5011862;28;19965;-57
2023/03/15 09:47:05;;;;;;;;;;;4.50;99.90;;;;;;5013214;28;19913;-57
2023/03/15 09:49:40;;;;;;;;;;;4.50;99.90;;;;;;5013827;28;19913;-55
2023/03/15 09:52:11;;;;;;;;;;;4.60;99.90;;;;;;5014991;28;20008;-57
2023/03/15 09:54:40;;;;;;;;;;;4.50;99.90;;;;;;5014306;28;19960;-56
2023/03/15 09:57:13;;;;;;;;;;;4.50;99.90;;;;;;5013141;28;19913;-56
2023/03/15 09:59:41;;;;;;;;;;;4.50;99.90;;;;;;5014386;28;19928;-54
2023/03/15 10:02:15;;;;;;;;;;;4.50;99.90;;;;;;5011927;28;20361;-55
2023/03/15 10:04:42;;;;;;;;;;;4.70;99.90;;;;;;5013895;28;19957;-52
2023/03/15 10:07:15;;;;;;;;;;;4.90;99.90;;;;;;5014321;28;20379;-57
2023/03/15 10:09:41;;;;;;;;;;;5.20;99.90;;;;;;5014780;28;19909;-57
2023/03/15 10:12:26;;;;;;;;;;;5.50;99.90;;;;;;5014104;28;19917;-58
2023/03/15 10:14:57;;;;;;;;;;;5.80;99.90;;;;;;5014297;28;20275;-56
2023/03/15 10:17:41;;;;;;;;;;;5.90;99.90;;;;;;5012900;28;19945;-56
2023/03/15 10:20:20;;;;;;;;;;;5.90;99.90;;;;;;5010799;28;19921;-56
2023/03/15 10:22:57;;;;;;;;;;;5.60;99.90;;;;;;5013646;28;19921;-59
2023/03/15 10:25:26;;;;;;;;;;;5.40;99.90;;;;;;5014735;28;19929;-57
2023/03/15 10:27:58;;;;;;;;;;;5.30;99.90;;;;;;5013841;28;20392;-57
2023/03/15 10:30:25;;;;;;;;;;;5.40;99.90;;;;;;5013086;28;19914;-56
2023/03/15 10:32:56;;;;;;;;;;;5.60;99.90;;;;;;5011507;28;19916;-57
2023/03/15 10:35:21;;;;;;;;;;;5.60;99.90;;;;;;5013578;28;20263;-55
2023/03/15 10:37:47;;;;;;;;;;;5.30;99.90;;;;;;5013454;28;19913;-56
2023/03/15 10:40:14;;;;;;;;;;;5.30;99.90;;;;;;5009553;28;20274;-56
2023/03/15 10:42:41;;;;;;;;;;;5.80;99.90;;;;;;5008270;28;20000;-56
2023/03/15 10:45:11;;;;;;;;;;;6.10;99.90;;;;;;5009332;28;20379;-55
2023/03/15 10:47:43;;;;;;;;;;;6.50;99.90;;;;;;5007775;28;19964;-58
2023/03/15 10:50:08;;;;;;;;;;;6.80;99.90;;;;;;5007768;28;19910;-57
2023/03/15 10:52:38;;;;;;;;;;;7.10;99.90;;;;;;5009425;28;20283;-52
2023/03/15 10:55:06;;;;;;;;;;;7.20;99.90;;;;;;5001251;28;19910;-57
2023/03/15 10:57:33;;;;;;;;;;;6.90;99.90;;;;;;5005575;28;20391;-58
2023/03/15 11:00:16;;;;;;;;;;;7.20;99.90;;;;;;5007197;28;19913;-58
2023/03/15 11:02:51;;;;;;;;;;;7.10;99.90;;;;;;5006290;28;19909;-57
2023/03/15 11:05:17;;;;;;;;;;;7.30;99.90;;;;;;5003326;28;19921;-54
2023/03/15 11:07:53;;;;;;;;;;;7.10;99.90;;;;;;4997276;28;19934;-56
2023/03/15 11:10:24;;;;;;;;;;;6.60;99.90;;;;;;5004711;28;20371;-57
2023/03/15 11:12:49;;;;;;;;;;;6.80;99.90;;;;;;5000173;28;20378;-63
2023/03/15 11:15:15;;;;;;;;;;;7.10;99.90;;;;;;5001153;28;19944;-63
2023/03/15 11:17:42;;;;;;;;;;;7.30;99.90;;;;;;5004385;28;19914;-64
2023/03/15 11:20:29;;;;;;;;;;;7.50;99.90;;;;;;5006780;28;19913;-64
2023/03/15 11:22:55;;;;;;;;;;;7.50;99.90;;;;;;5001369;28;19914;-63
2023/03/15 11:25:22;;;;;;;;;;;7.20;99.90;;;;;;5001763;28;19924;-64
2023/03/15 11:27:52;;;;;;;;;;;7.10;99.90;;;;;;4973690;28;19921;-63
2023/03/15 11:30:20;;;;;;;;;;;6.80;99.90;;;;;;5003483;28;19914;-65
2023/03/15 11:32:45;;;;;;;;;;;7.00;99.90;;;;;;5005307;28;19922;-66
2023/03/15 11:35:14;;;;;;;;;;;7.50;99.90;;;;;;5004900;28;19920;-62
2023/03/15 11:37:52;;;;;;;;;;;7.60;99.90;;;;;;5004852;28;19913;-62
2023/03/15 11:40:22;;;;;;;;;;;7.80;99.90;;;;;;5005559;28;20408;-62
2023/03/15 11:42:59;;;;;;;;;;;8.30;99.90;;;;;;5006632;28;20303;-63
2023/03/15 11:45:33;;;;;;;;;;;8.90;99.90;;;;;;5004936;28;20067;-64
2023/03/15 11:48:03;;;;;;;;;;;9.10;99.90;;;;;;5000987;28;19949;-63
2023/03/15 11:50:29;;;;;;;;;;;9.10;99.90;;;;;;5009008;28;20004;-64
2023/03/15 11:52:54;;;;;;;;;;;9.20;99.90;;;;;;5006130;28;20008;-65
2023/03/15 11:55:24;;;;;;;;;;;8.80;99.90;;;;;;5006950;28;20355;-63
2023/03/15 11:57:50;;;;;;;;;;;8.40;99.90;;;;;;5008859;28;19921;-64
2023/03/15 12:00:25;;;;;;;;;;;8.30;99.90;;;;;;5009654;28;19979;-63
2023/03/15 12:02:58;;;;;;;;;;;8.40;99.90;;;;;;5000587;28;19944;-63
2023/03/15 12:05:44;;;;;;;;;;;8.10;99.90;;;;;;5001925;28;19909;-63
2023/03/15 12:08:17;;;;;;;;;;;8.10;99.90;;;;;;5010829;28;19953;-63
2023/03/15 12:10:48;;;;;;;;;;;8.50;99.90;;;;;;5006127;28;19921;-62
2023/03/15 12:13:29;;;;;;;;;;;9.00;99.90;;;;;;5005147;28;19914;-63
2023/03/15 12:15:55;;;;;;;;;;;9.30;99.90;;;;;;5005418;28;19932;-62
2023/03/15 12:18:41;;;;;;;;;;;9.80;99.90;;;;;;5004580;28;19922;-61
2023/03/15 12:21:08;;;;;;;;;;;9.70;99.90;;;;;;5003774;28;19921;-61
2023/03/15 12:23:39;;;;;;;;;;;10.10;99.90;;;;;;5004096;28;20096;-61
2023/03/15 12:26:07;;;;;;;;;;;9.90;99.90;;;;;;5003226;28;20287;-63
2023/03/15 12:28:40;;;;;;;;;;;10.20;99.90;;;;;;5001245;28;19932;-61
2023/03/15 12:31:07;;;;;;;;;;;10.10;98.40;;;;;;5006871;28;19932;-60
2023/03/15 12:33:42;;;;;;;;;;;10.30;99.90;;;;;;4985060;28;20346;-62
2023/03/15 12:36:09;;;;;;;;;;;10.60;99.90;;;;;;5004690;28;19941;-59
2023/03/15 12:38:37;;;;;;;;;;;10.30;99.90;;;;;;5005260;28;19917;-59
2023/03/15 12:41:05;;;;;;;;;;;10.30;98.90;;;;;;5002126;28;20296;-61
2023/03/15 12:43:44;;;;;;;;;;;10.30;99.80;;;;;;5007599;28;20044;-60
2023/03/15 12:46:28;;;;;;;;;;;10.00;96.90;;;;;;5006108;28;19918;-60
2023/03/15 12:49:04;;;;;;;;;;;10.20;99.60;;;;;;5004972;28;20402;-62
2023/03/15 12:51:43;;;;;;;;;;;9.70;99.90;;;;;;5001406;28;20023;-61
2023/03/15 12:54:12;;;;;;;;;;;9.50;99.90;;;;;;5002133;28;19922;-61
2023/03/15 12:56:38;;;;;;;;;;;9.60;99.90;;;;;;5004079;28;19979;-61
2023/03/15 12:59:22;;;;;;;;;;;9.90;99.90;;;;;;5006936;28;19914;-60
2023/03/15 13:01:49;;;;;;;;;;;10.50;99.90;;;;;;4999354;28;19921;-61
2023/03/15 13:04:15;;;;;;;;;;;10.70;99.90;;;;;;5001428;28;19917;-61
2023/03/15 13:06:46;;;;;;;;;;;10.50;99.90;;;;;;5001210;28;20331;-62
2023/03/15 13:09:24;;;;;;;;;;;10.50;99.90;;;;;;5004971;28;19917;-62
2023/03/15 13:12:00;;;;;;;;;;;10.60;99.90;;;;;;5004742;28;20012;-60
2023/03/15 13:14:31;;;;;;;;;;;11.20;99.90;;;;;;5002733;28;19914;-61
2023/03/15 13:17:02;;;;;;;;;;;11.20;96.80;;;;;;5003809;28;20012;-61
2023/03/15 13:19:35;;;;;;;;;;;11.30;95.50;;;;;;5004512;28;20376;-62
2023/03/15 13:22:04;;;;;;;;;;;11.20;95.10;;;;;;5001692;28;19957;-61
2023/03/15 13:24:41;;;;;;;;;;;11.20;96.70;;;;;;5005086;28;19939;-60
2023/03/15 13:27:11;;;;;;;;;;;11.00;97.30;;;;;;5006302;28;19933;-60
2023/03/15 13:29:37;;;;;;;;;;;11.10;96.70;;;;;;4998368;28;20311;-62
2023/03/15 13:32:14;;;;;;;;;;;11.60;99.90;;;;;;4983486;28;19918;-60
2023/03/15 13:34:40;;;;;;;;;;;11.50;96.10;;;;;;5002255;28;19988;-61
2023/03/15 13:37:10;;;;;;;;;;;11.40;97.40;;;;;;5002636;28;19921;-62
2023/03/15 13:39:36;;;;;;;;;;;11.70;97.60;;;;;;5002872;28;19973;-63
2023/03/15 13:42:06;;;;;;;;;;;12.00;95.10;;;;;;5005445;28;20399;-58
2023/03/15 13:44:31;;;;;;;;;;;11.70;94.40;;;;;;5003779;28;19917;-62
2023/03/15 13:46:58;;;;;;;;;;;11.40;94.70;;;;;;5003980;28;19921;-59
2023/03/15 13:49:24;;;;;;;;;;;11.70;95.50;;;;;;5001562;28;19924;-62
2023/03/15 13:51:51;;;;;;;;;;;11.30;93.70;;;;;;5002041;28;19973;-62
2023/03/15 13:54:28;;;;;;;;;;;11.40;94.50;;;;;;5002158;28;20770;-65
2023/03/15 13:56:54;;;;;;;;;;;11.00;93.90;;;;;;5005289;28;19917;-63
2023/03/15 13:59:21;;;;;;;;;;;11.30;95.50;;;;;;5002526;28;19964;-62
2023/03/15 14:01:48;;;;;;;;;;;11.50;96.10;;;;;;5004202;28;19988;-60
2023/03/15 14:04:16;;;;;;;;;;;11.20;93.90;;;;;;5003527;28;20665;-63
2023/03/15 14:06:44;;;;;;;;;;;11.00;94.30;;;;;;5000943;28;20365;-61
2023/03/15 14:09:16;;;;;;;;;;;11.00;94.50;;;;;;5003585;28;20020;-60
2023/03/15 14:11:43;;;;;;;;;;;11.20;94.20;;;;;;5005529;28;19967;-62
2023/03/15 14:14:14;;;;;;;;;;;11.50;93.60;;;;;;5003916;28;19921;-62
2023/03/15 14:16:44;;;;;;;;;;;11.60;92.20;;;;;;5003925;28;19925;-61
2023/03/15 14:19:23;;;;;;;;;;;11.60;90.50;;;;;;5002952;28;19917;-60
2023/03/15 14:21:53;;;;;;;;;;;11.40;93.10;;;;;;5007360;28;21675;-60
2023/03/15 14:24:25;;;;;;;;;;;11.10;93.00;;;;;;5007803;28;19979;-62
2023/03/15 14:26:52;;;;;;;;;;;11.10;93.80;;;;;;5004895;28;19978;-61
2023/03/15 14:29:21;;;;;;;;;;;10.90;93.10;;;;;;5007156;28;19928;-62
2023/03/15 14:31:49;;;;;;;;;;;11.00;93.30;;;;;;5002886;28;20137;-58